Aihui, Heilongjiang

7:00 PM CST on July 23, 2016 (GMT +0800)
Ignatyevo | | Change Station

Elev 636 ft 50.43 °N, 127.41 °E | Updated 30 minutes ago

Light Rain Showers
Light Showers Rain
72 °F
Feels Like 72 °F
N
16
Wind Variable Wind from SE

Today
High -- | Low -- °F
--% Chance of Precip.
Yesterday
High -- | Low -- °F
Precip. -- in
Pressure 29.50 in
Visibility 6.2 miles
Clouds Mostly Cloudy 2000 ft
Dew Point 70 °F
Humidity 94%
Rainfall 0.00 in
Snow Depth Not available.
3:46 AM 7:26 PM
Waning Gibbous, 86% visible
METAR UHBB 231030Z 13007MPS 9999 -SHRA BKN020CB 22/21 Q0999 R18/190060 NOSIG RMK QFE734/0979
Pressure 29.50 in
Visibility 6.2 miles
Clouds Mostly Cloudy 2000 ft
Dew Point 70 °F
Humidity 94%
Rainfall 0.00 in
Snow Depth Not available.
3:46 AM 7:26 PM
Waning Gibbous, 86% visible
METAR UHBB 231030Z 13007MPS 9999 -SHRA BKN020CB 22/21 Q0999 R18/190060 NOSIG RMK QFE734/0979

10-Day Weather Forecast

No radar image for this location.
×

Almanac

Astronomy

Jul. 23, 2016 Rise Set
Actual Time
Civil Twilight
Nautical Twilight
Astronomical Twilight
Moon
Length of Visible Light
Length of Day
Tomorrow will be .
, % of the Moon is Illuminated

Today's Extremes

Country Highs Country Lows

Community

WunderPhotos

Upload Photos

1,926,793 photos uploaded!

WunderBlog® & News

Nearby

Air Quality

  Air Quality AQ Index Pollutant
Not available.

Snow Depth

Station Depth Elevation

Earthquake Activity

City Distance Mag. Time & Date
Minimum magnitude displayed is 2.5.

Coastal Water Temperatures

Place Temperature

Stations

Nearby Weather Stations

Station Location Temp. Windchill Dew Point Humidity Wind Precip. Elev Updated Type